sensor_id;sensor_type;location;lat;lon;timestamp;P1;P2;P0
27143;PMS1003;14672;50.250;8.312;2024-03-07T00:02:19;64.50;57.50;28.00
27143;PMS1003;14672;50.250;8.312;2024-03-07T00:04:45;58.00;56.50;30.50
27143;PMS1003;14672;50.250;8.312;2024-03-07T00:07:11;55.33;52.67;28.67
27143;PMS1003;14672;50.250;8.312;2024-03-07T00:09:37;62.67;52.67;27.33
27143;PMS1003;14672;50.250;8.312;2024-03-07T00:12:03;55.00;44.50;23.00
27143;PMS1003;14672;50.250;8.312;2024-03-07T00:14:32;77.50;59.50;28.00
27143;PMS1003;14672;50.250;8.312;2024-03-07T00:16:59;66.50;54.50;28.50
27143;PMS1003;14672;50.250;8.312;2024-03-07T00:19:25;60.67;56.67;28.00
27143;PMS1003;14672;50.250;8.312;2024-03-07T00:21:58;69.20;56.40;30.80
27143;PMS1003;14672;50.250;8.312;2024-03-07T00:24:24;68.50;60.00;29.50
27143;PMS1003;14672;50.250;8.312;2024-03-07T00:26:52;60.50;53.50;31.00
27143;PMS1003;14672;50.250;8.312;2024-03-07T00:29:18;58.00;46.67;24.00
27143;PMS1003;14672;50.250;8.312;2024-03-07T00:31:47;70.00;57.00;29.00
27143;PMS1003;14672;50.250;8.312;2024-03-07T00:34:13;64.00;56.40;29.60
27143;PMS1003;14672;50.250;8.312;2024-03-07T00:36:43;62.00;53.00;28.00
27143;PMS1003;14672;50.250;8.312;2024-03-07T00:39:09;59.33;53.33;28.00
27143;PMS1003;14672;50.250;8.312;2024-03-07T00:41:37;63.50;56.00;28.00
27143;PMS1003;14672;50.250;8.312;2024-03-07T00:44:04;57.00;48.50;27.00
27143;PMS1003;14672;50.250;8.312;2024-03-07T00:46:31;61.50;55.00;26.00
27143;PMS1003;14672;50.250;8.312;2024-03-07T00:48:57;68.50;57.50;28.00
27143;PMS1003;14672;50.250;8.312;2024-03-07T00:51:23;56.67;52.00;28.00
27143;PMS1003;14672;50.250;8.312;2024-03-07T00:53:48;70.00;60.67;32.00
27143;PMS1003;14672;50.250;8.312;2024-03-07T00:56:14;75.33;50.67;27.33
27143;PMS1003;14672;50.250;8.312;2024-03-07T00:58:40;72.00;62.00;32.00
27143;PMS1003;14672;50.250;8.312;2024-03-07T01:01:06;54.67;53.33;28.00
27143;PMS1003;14672;50.250;8.312;2024-03-07T01:03:32;76.00;59.33;27.33
27143;PMS1003;14672;50.250;8.312;2024-03-07T01:05:57;64.67;54.67;28.00
27143;PMS1003;14672;50.250;8.312;2024-03-07T01:08:24;71.00;60.00;31.50
27143;PMS1003;14672;50.250;8.312;2024-03-07T01:10:49;64.67;54.67;26.00
27143;PMS1003;14672;50.250;8.312;2024-03-07T01:13:15;58.00;52.67;28.00
27143;PMS1003;14672;50.250;8.312;2024-03-07T01:15:47;63.00;56.00;29.00
27143;PMS1003;14672;50.250;8.312;2024-03-07T01:18:14;69.00;57.00;28.00
27143;PMS1003;14672;50.250;8.312;2024-03-07T01:20:40;62.50;52.50;26.00
27143;PMS1003;14672;50.250;8.312;2024-03-07T01:23:05;66.00;55.33;30.00
27143;PMS1003;14672;50.250;8.312;2024-03-07T01:25:33;60.50;58.00;30.00
27143;PMS1003;14672;50.250;8.312;2024-03-07T01:28:00;66.50;54.50;28.50
27143;PMS1003;14672;50.250;8.312;2024-03-07T01:30:26;58.50;47.00;24.50
27143;PMS1003;14672;50.250;8.312;2024-03-07T01:32:53;80.00;62.40;30.00
27143;PMS1003;14672;50.250;8.312;2024-03-07T01:35:20;58.00;49.00;25.00
27143;PMS1003;14672;50.250;8.312;2024-03-07T01:37:45;62.67;54.67;28.00
27143;PMS1003;14672;50.250;8.312;2024-03-07T01:40:11;72.00;60.50;30.00
27143;PMS1003;14672;50.250;8.312;2024-03-07T01:42:39;61.00;54.00;29.50
27143;PMS1003;14672;50.250;8.312;2024-03-07T01:45:05;60.50;51.50;24.50
27143;PMS1003;14672;50.250;8.312;2024-03-07T01:47:34;55.00;49.50;23.00
27143;PMS1003;14672;50.250;8.312;2024-03-07T01:50:01;56.50;48.00;27.00
27143;PMS1003;14672;50.250;8.312;2024-03-07T01:52:29;59.00;53.50;28.50
27143;PMS1003;14672;50.250;8.312;2024-03-07T01:54:55;63.50;58.00;27.00
27143;PMS1003;14672;50.250;8.312;2024-03-07T01:57:22;75.60;60.80;30.80
27143;PMS1003;14672;50.250;8.312;2024-03-07T01:59:48;59.33;51.33;26.00
27143;PMS1003;14672;50.250;8.312;2024-03-07T02:02:15;58.00;52.00;23.00
27143;PMS1003;14672;50.250;8.312;2024-03-07T02:04:42;57.50;47.00;22.50
27143;PMS1003;14672;50.250;8.312;2024-03-07T02:07:08;59.50;53.50;26.50
27143;PMS1003;14672;50.250;8.312;2024-03-07T02:09:36;51.50;46.00;24.50
27143;PMS1003;14672;50.250;8.312;2024-03-07T02:12:03;55.50;45.50;22.00
27143;PMS1003;14672;50.250;8.312;2024-03-07T02:14:29;61.50;54.00;27.50
27143;PMS1003;14672;50.250;8.312;2024-03-07T02:16:55;59.33;48.00;25.33
27143;PMS1003;14672;50.250;8.312;2024-03-07T02:19:22;60.50;54.50;26.00
27143;PMS1003;14672;50.250;8.312;2024-03-07T02:21:48;57.00;51.50;27.50
27143;PMS1003;14672;50.250;8.312;2024-03-07T02:24:14;62.67;53.33;26.67
27143;PMS1003;14672;50.250;8.312;2024-03-07T02:26:40;60.50;55.00;26.50
27143;PMS1003;14672;50.250;8.312;2024-03-07T02:29:06;56.67;48.67;25.33
27143;PMS1003;14672;50.250;8.312;2024-03-07T02:31:32;52.67;48.00;25.33
27143;PMS1003;14672;50.250;8.312;2024-03-07T02:34:08;60.50;53.50;25.00
27143;PMS1003;14672;50.250;8.312;2024-03-07T02:36:36;54.00;49.50;27.50
27143;PMS1003;14672;50.250;8.312;2024-03-07T02:39:02;71.33;54.00;26.67
27143;PMS1003;14672;50.250;8.312;2024-03-07T02:41:29;62.00;53.00;26.00
27143;PMS1003;14672;50.250;8.312;2024-03-07T02:43:55;51.00;50.00;25.50
27143;PMS1003;14672;50.250;8.312;2024-03-07T02:46:21;65.00;56.50;30.00
27143;PMS1003;14672;50.250;8.312;2024-03-07T02:48:47;56.00;52.67;26.00
27143;PMS1003;14672;50.250;8.312;2024-03-07T02:51:13;56.67;44.00;20.67
27143;PMS1003;14672;50.250;8.312;2024-03-07T02:53:39;62.00;56.50;28.50
27143;PMS1003;14672;50.250;8.312;2024-03-07T02:56:05;63.33;54.67;27.33
27143;PMS1003;14672;50.250;8.312;2024-03-07T02:58:34;60.00;47.50;23.00
27143;PMS1003;14672;50.250;8.312;2024-03-07T03:01:00;52.67;48.00;22.00
27143;PMS1003;14672;50.250;8.312;2024-03-07T03:03:26;56.00;47.50;26.00
27143;PMS1003;14672;50.250;8.312;2024-03-07T03:05:52;57.00;51.50;27.50
27143;PMS1003;14672;50.250;8.312;2024-03-07T03:08:18;52.00;48.00;24.00
27143;PMS1003;14672;50.250;8.312;2024-03-07T03:10:43;54.00;50.00;24.00
27143;PMS1003;14672;50.250;8.312;2024-03-07T03:13:09;49.33;48.00;23.33
27143;PMS1003;14672;50.250;8.312;2024-03-07T03:15:35;59.50;49.00;27.00
27143;PMS1003;14672;50.250;8.312;2024-03-07T03:18:04;67.00;61.50;27.50
27143;PMS1003;14672;50.250;8.312;2024-03-07T03:20:30;68.00;56.50;27.00
27143;PMS1003;14672;50.250;8.312;2024-03-07T03:23:00;47.50;44.50;23.50
27143;PMS1003;14672;50.250;8.312;2024-03-07T03:25:28;53.60;51.20;29.20
27143;PMS1003;14672;50.250;8.312;2024-03-07T03:27:53;64.67;52.67;24.00
27143;PMS1003;14672;50.250;8.312;2024-03-07T03:30:19;64.50;51.50;26.50
27143;PMS1003;14672;50.250;8.312;2024-03-07T03:32:46;61.50;50.00;24.50
27143;PMS1003;14672;50.250;8.312;2024-03-07T03:35:16;60.50;51.50;27.00
27143;PMS1003;14672;50.250;8.312;2024-03-07T03:37:42;49.50;47.00;25.00
27143;PMS1003;14672;50.250;8.312;2024-03-07T03:40:09;50.00;44.50;25.50
27143;PMS1003;14672;50.250;8.312;2024-03-07T03:42:37;56.00;51.50;26.00
27143;PMS1003;14672;50.250;8.312;2024-03-07T03:45:04;67.20;60.40;30.40
27143;PMS1003;14672;50.250;8.312;2024-03-07T03:47:34;69.50;47.00;24.00
27143;PMS1003;14672;50.250;8.312;2024-03-07T03:50:06;64.50;57.00;27.00
27143;PMS1003;14672;50.250;8.312;2024-03-07T03:52:34;61.50;50.50;25.00
27143;PMS1003;14672;50.250;8.312;2024-03-07T03:55:00;56.00;52.50;25.00
27143;PMS1003;14672;50.250;8.312;2024-03-07T03:57:27;61.00;52.50;24.00
27143;PMS1003;14672;50.250;8.312;2024-03-07T03:59:57;52.00;48.50;22.50
27143;PMS1003;14672;50.250;8.312;2024-03-07T04:02:23;57.50;50.50;26.00
27143;PMS1003;14672;50.250;8.312;2024-03-07T04:04:50;48.00;47.00;26.50
27143;PMS1003;14672;50.250;8.312;2024-03-07T04:07:18;49.00;43.00;22.50
27143;PMS1003;14672;50.250;8.312;2024-03-07T04:09:44;61.50;47.00;21.50
27143;PMS1003;14672;50.250;8.312;2024-03-07T04:12:11;53.00;50.50;26.00
27143;PMS1003;14672;50.250;8.312;2024-03-07T04:14:41;41.00;37.00;21.50
27143;PMS1003;14672;50.250;8.312;2024-03-07T04:17:08;40.50;39.00;22.00
27143;PMS1003;14672;50.250;8.312;2024-03-07T04:19:39;54.50;51.00;23.00
27143;PMS1003;14672;50.250;8.312;2024-03-07T04:22:05;70.00;55.50;25.00
27143;PMS1003;14672;50.250;8.312;2024-03-07T04:24:33;59.00;51.50;25.50
27143;PMS1003;14672;50.250;8.312;2024-03-07T04:27:03;52.00;47.00;27.50
27143;PMS1003;14672;50.250;8.312;2024-03-07T04:29:33;58.50;46.50;21.50
27143;PMS1003;14672;50.250;8.312;2024-03-07T04:31:59;56.50;48.50;27.00
27143;PMS1003;14672;50.250;8.312;2024-03-07T04:34:27;72.00;52.50;27.50
27143;PMS1003;14672;50.250;8.312;2024-03-07T04:36:56;61.50;48.00;18.50
27143;PMS1003;14672;50.250;8.312;2024-03-07T04:39:23;57.00;48.50;26.50
27143;PMS1003;14672;50.250;8.312;2024-03-07T04:42:07;55.60;50.80;25.20
27143;PMS1003;14672;50.250;8.312;2024-03-07T04:44:35;69.00;48.00;25.00
27143;PMS1003;14672;50.250;8.312;2024-03-07T04:47:02;57.00;53.00;23.50
27143;PMS1003;14672;50.250;8.312;2024-03-07T04:49:29;57.50;52.00;26.50
27143;PMS1003;14672;50.250;8.312;2024-03-07T04:51:57;53.00;46.00;25.50
27143;PMS1003;14672;50.250;8.312;2024-03-07T04:54:25;54.00;46.67;24.00
27143;PMS1003;14672;50.250;8.312;2024-03-07T04:56:52;60.50;52.50;26.00
27143;PMS1003;14672;50.250;8.312;2024-03-07T04:59:19;58.00;54.00;26.00
27143;PMS1003;14672;50.250;8.312;2024-03-07T05:01:46;54.50;50.50;25.50
27143;PMS1003;14672;50.250;8.312;2024-03-07T05:04:15;62.00;56.00;29.00
27143;PMS1003;14672;50.250;8.312;2024-03-07T05:06:42;62.50;55.00;26.50
27143;PMS1003;14672;50.250;8.312;2024-03-07T05:09:09;57.00;46.50;24.00
27143;PMS1003;14672;50.250;8.312;2024-03-07T05:11:47;62.50;52.50;27.00
27143;PMS1003;14672;50.250;8.312;2024-03-07T05:14:16;52.00;46.50;24.00
27143;PMS1003;14672;50.250;8.312;2024-03-07T05:16:43;56.67;52.00;24.67
27143;PMS1003;14672;50.250;8.312;2024-03-07T05:19:09;48.00;41.50;19.50
27143;PMS1003;14672;50.250;8.312;2024-03-07T05:21:35;58.00;48.00;22.00
27143;PMS1003;14672;50.250;8.312;2024-03-07T05:24:06;59.50;48.00;24.00
27143;PMS1003;14672;50.250;8.312;2024-03-07T05:26:33;50.50;47.00;25.00
27143;PMS1003;14672;50.250;8.312;2024-03-07T05:29:04;53.50;52.50;24.50
27143;PMS1003;14672;50.250;8.312;2024-03-07T05:31:32;51.50;49.00;26.50
27143;PMS1003;14672;50.250;8.312;2024-03-07T05:34:12;60.50;53.00;21.50
27143;PMS1003;14672;50.250;8.312;2024-03-07T05:36:39;57.00;52.50;27.00
27143;PMS1003;14672;50.250;8.312;2024-03-07T05:39:10;57.00;52.00;26.00
27143;PMS1003;14672;50.250;8.312;2024-03-07T05:41:38;55.00;45.00;22.50
27143;PMS1003;14672;50.250;8.312;2024-03-07T05:44:05;57.50;50.00;23.50
27143;PMS1003;14672;50.250;8.312;2024-03-07T05:46:37;53.50;48.50;20.50
27143;PMS1003;14672;50.250;8.312;2024-03-07T05:49:12;51.50;48.50;23.50
27143;PMS1003;14672;50.250;8.312;2024-03-07T05:51:38;55.50;50.50;24.50
27143;PMS1003;14672;50.250;8.312;2024-03-07T05:54:07;54.50;46.50;25.00
27143;PMS1003;14672;50.250;8.312;2024-03-07T05:56:34;58.50;46.00;23.50
27143;PMS1003;14672;50.250;8.312;2024-03-07T05:59:04;59.50;47.00;24.00
27143;PMS1003;14672;50.250;8.312;2024-03-07T06:01:35;52.00;50.00;24.00
27143;PMS1003;14672;50.250;8.312;2024-03-07T06:04:02;50.00;44.50;20.00
27143;PMS1003;14672;50.250;8.312;2024-03-07T06:06:31;47.50;44.00;20.00
27143;PMS1003;14672;50.250;8.312;2024-03-07T06:09:04;54.00;47.00;22.00
27143;PMS1003;14672;50.250;8.312;2024-03-07T06:11:36;59.50;49.00;24.50
27143;PMS1003;14672;50.250;8.312;2024-03-07T06:14:04;56.50;52.00;22.00
27143;PMS1003;14672;50.250;8.312;2024-03-07T06:16:31;62.50;53.00;27.00
27143;PMS1003;14672;50.250;8.312;2024-03-07T06:19:03;51.50;45.00;24.00
27143;PMS1003;14672;50.250;8.312;2024-03-07T06:21:33;58.00;52.00;24.00
27143;PMS1003;14672;50.250;8.312;2024-03-07T06:24:01;54.00;51.50;25.50
27143;PMS1003;14672;50.250;8.312;2024-03-07T06:26:32;55.60;49.60;27.20
27143;PMS1003;14672;50.250;8.312;2024-03-07T06:29:10;60.50;51.00;26.50
27143;PMS1003;14672;50.250;8.312;2024-03-07T06:31:43;54.50;48.50;22.50
27143;PMS1003;14672;50.250;8.312;2024-03-07T06:34:12;61.50;50.50;22.50
27143;PMS1003;14672;50.250;8.312;2024-03-07T06:36:39;55.50;50.00;25.00
27143;PMS1003;14672;50.250;8.312;2024-03-07T06:39:05;56.00;52.00;30.00
27143;PMS1003;14672;50.250;8.312;2024-03-07T06:41:33;63.20;48.80;25.60
27143;PMS1003;14672;50.250;8.312;2024-03-07T06:43:59;66.00;53.50;24.50
27143;PMS1003;14672;50.250;8.312;2024-03-07T06:46:25;66.00;57.50;23.50
27143;PMS1003;14672;50.250;8.312;2024-03-07T06:48:51;60.67;51.33;26.00
27143;PMS1003;14672;50.250;8.312;2024-03-07T06:51:17;50.00;46.00;24.00
27143;PMS1003;14672;50.250;8.312;2024-03-07T06:53:43;60.00;54.40;28.40
27143;PMS1003;14672;50.250;8.312;2024-03-07T06:56:12;59.20;55.20;28.80
27143;PMS1003;14672;50.250;8.312;2024-03-07T06:58:39;70.00;56.00;29.20
27143;PMS1003;14672;50.250;8.312;2024-03-07T07:01:05;54.40;52.80;30.00
27143;PMS1003;14672;50.250;8.312;2024-03-07T07:03:35;53.00;47.50;27.50
27143;PMS1003;14672;50.250;8.312;2024-03-07T07:06:01;51.00;45.50;23.00
27143;PMS1003;14672;50.250;8.312;2024-03-07T07:08:28;56.00;44.50;23.50
27143;PMS1003;14672;50.250;8.312;2024-03-07T07:10:54;58.00;50.00;23.00
27143;PMS1003;14672;50.250;8.312;2024-03-07T07:13:21;52.50;47.00;23.00
27143;PMS1003;14672;50.250;8.312;2024-03-07T07:15:48;53.00;47.00;24.00
27143;PMS1003;14672;50.250;8.312;2024-03-07T07:18:14;55.00;50.00;28.00
27143;PMS1003;14672;50.250;8.312;2024-03-07T07:20:41;66.50;54.00;26.00
27143;PMS1003;14672;50.250;8.312;2024-03-07T07:23:07;58.00;47.33;25.33
27143;PMS1003;14672;50.250;8.312;2024-03-07T07:25:33;58.00;53.33;28.00
27143;PMS1003;14672;50.250;8.312;2024-03-07T07:27:59;62.00;55.33;29.33
27143;PMS1003;14672;50.250;8.312;2024-03-07T07:30:25;62.00;57.00;30.00
27143;PMS1003;14672;50.250;8.312;2024-03-07T07:32:54;61.00;52.00;26.50
27143;PMS1003;14672;50.250;8.312;2024-03-07T07:35:20;60.00;50.00;26.67
27143;PMS1003;14672;50.250;8.312;2024-03-07T07:37:47;62.00;54.00;28.00
27143;PMS1003;14672;50.250;8.312;2024-03-07T07:40:15;57.50;52.00;27.50
27143;PMS1003;14672;50.250;8.312;2024-03-07T07:42:48;54.00;51.00;26.50
27143;PMS1003;14672;50.250;8.312;2024-03-07T07:45:16;56.00;51.00;27.50
27143;PMS1003;14672;50.250;8.312;2024-03-07T07:47:45;67.20;57.20;27.60
27143;PMS1003;14672;50.250;8.312;2024-03-07T07:50:17;60.50;53.00;28.00
27143;PMS1003;14672;50.250;8.312;2024-03-07T07:52:51;70.50;56.50;28.00
27143;PMS1003;14672;50.250;8.312;2024-03-07T07:55:20;59.50;52.50;27.50
27143;PMS1003;14672;50.250;8.312;2024-03-07T07:57:59;64.00;53.50;26.00
27143;PMS1003;14672;50.250;8.312;2024-03-07T08:00:29;57.50;49.50;27.50
27143;PMS1003;14672;50.250;8.312;2024-03-07T08:02:57;58.00;55.00;29.00
27143;PMS1003;14672;50.250;8.312;2024-03-07T08:05:35;57.50;49.50;24.00
27143;PMS1003;14672;50.250;8.312;2024-03-07T08:08:04;77.00;55.50;24.50
27143;PMS1003;14672;50.250;8.312;2024-03-07T08:10:35;53.50;51.50;25.50
27143;PMS1003;14672;50.250;8.312;2024-03-07T08:13:03;66.50;54.50;30.00
27143;PMS1003;14672;50.250;8.312;2024-03-07T08:15:33;79.50;60.00;30.50
27143;PMS1003;14672;50.250;8.312;2024-03-07T08:17:59;66.50;58.50;34.50
27143;PMS1003;14672;50.250;8.312;2024-03-07T08:20:26;65.00;59.00;33.00
27143;PMS1003;14672;50.250;8.312;2024-03-07T08:22:53;88.00;68.80;36.80
27143;PMS1003;14672;50.250;8.312;2024-03-07T08:25:20;57.00;54.00;28.00
27143;PMS1003;14672;50.250;8.312;2024-03-07T08:27:56;67.50;59.00;28.50
27143;PMS1003;14672;50.250;8.312;2024-03-07T08:30:23;66.50;59.00;28.50
27143;PMS1003;14672;50.250;8.312;2024-03-07T08:32:50;58.50;55.50;27.50
27143;PMS1003;14672;50.250;8.312;2024-03-07T08:35:18;60.00;57.50;28.00
27143;PMS1003;14672;50.250;8.312;2024-03-07T08:37:46;65.50;53.00;22.50
27143;PMS1003;14672;50.250;8.312;2024-03-07T08:40:26;62.50;56.50;28.50
27143;PMS1003;14672;50.250;8.312;2024-03-07T08:42:57;53.00;48.00;26.50
27143;PMS1003;14672;50.250;8.312;2024-03-07T08:45:25;59.00;53.00;24.00
27143;PMS1003;14672;50.250;8.312;2024-03-07T08:47:52;47.00;40.50;21.50
27143;PMS1003;14672;50.250;8.312;2024-03-07T08:50:20;54.00;47.25;22.25
27143;PMS1003;14672;50.250;8.312;2024-03-07T08:52:46;59.25;54.25;24.75
27143;PMS1003;14672;50.250;8.312;2024-03-07T08:55:13;47.25;45.25;23.75
27143;PMS1003;14672;50.250;8.312;2024-03-07T08:57:42;52.00;48.25;22.50
27143;PMS1003;14672;50.250;8.312;2024-03-07T09:00:11;48.75;43.75;24.75
27143;PMS1003;14672;50.250;8.312;2024-03-07T09:02:48;53.50;46.75;21.75
27143;PMS1003;14672;50.250;8.312;2024-03-07T09:05:24;54.00;48.50;22.25
27143;PMS1003;14672;50.250;8.312;2024-03-07T09:07:51;50.00;45.00;23.75
27143;PMS1003;14672;50.250;8.312;2024-03-07T09:10:20;49.50;45.50;22.25
27143;PMS1003;14672;50.250;8.312;2024-03-07T09:12:46;63.25;50.50;25.50
27143;PMS1003;14672;50.250;8.312;2024-03-07T09:15:15;45.50;44.75;23.25
27143;PMS1003;14672;50.250;8.312;2024-03-07T09:17:42;49.75;44.00;23.00
27143;PMS1003;14672;50.250;8.312;2024-03-07T09:20:09;69.00;55.75;27.75
27143;PMS1003;14672;50.250;8.312;2024-03-07T09:22:42;59.25;48.50;25.75
27143;PMS1003;14672;50.250;8.312;2024-03-07T09:25:09;67.25;50.50;23.50
27143;PMS1003;14672;50.250;8.312;2024-03-07T09:27:38;52.00;47.25;23.00
27143;PMS1003;14672;50.250;8.312;2024-03-07T09:30:08;59.00;50.50;24.75
27143;PMS1003;14672;50.250;8.312;2024-03-07T09:32:43;51.50;44.25;21.25
27143;PMS1003;14672;50.250;8.312;2024-03-07T09:35:08;56.00;47.50;23.25
27143;PMS1003;14672;50.250;8.312;2024-03-07T09:37:37;45.25;43.25;24.00
27143;PMS1003;14672;50.250;8.312;2024-03-07T09:40:07;56.00;53.00;25.50
27143;PMS1003;14672;50.250;8.312;2024-03-07T09:42:37;51.75;45.00;22.50
27143;PMS1003;14672;50.250;8.312;2024-03-07T09:45:10;54.75;51.25;25.00
27143;PMS1003;14672;50.250;8.312;2024-03-07T09:47:47;53.50;46.00;24.50
27143;PMS1003;14672;50.250;8.312;2024-03-07T09:50:16;55.25;50.50;21.75
27143;PMS1003;14672;50.250;8.312;2024-03-07T09:52:47;45.50;42.50;21.50
27143;PMS1003;14672;50.250;8.312;2024-03-07T09:55:17;42.75;39.75;19.50
27143;PMS1003;14672;50.250;8.312;2024-03-07T09:57:48;42.50;38.25;20.50
27143;PMS1003;14672;50.250;8.312;2024-03-07T10:00:19;52.50;46.00;21.25
27143;PMS1003;14672;50.250;8.312;2024-03-07T10:02:57;47.75;42.75;21.75
27143;PMS1003;14672;50.250;8.312;2024-03-07T10:05:32;46.25;41.50;20.00
27143;PMS1003;14672;50.250;8.312;2024-03-07T10:07:59;44.75;41.50;21.25
27143;PMS1003;14672;50.250;8.312;2024-03-07T10:10:26;53.25;44.50;20.75
27143;PMS1003;14672;50.250;8.312;2024-03-07T10:12:52;38.67;33.67;18.33
27143;PMS1003;14672;50.250;8.312;2024-03-07T10:15:26;47.50;45.50;21.00
27143;PMS1003;14672;50.250;8.312;2024-03-07T10:17:56;47.00;43.00;23.67
27143;PMS1003;14672;50.250;8.312;2024-03-07T10:20:22;45.33;40.00;17.00
27143;PMS1003;14672;50.250;8.312;2024-03-07T10:22:49;43.50;42.25;19.25
27143;PMS1003;14672;50.250;8.312;2024-03-07T10:25:20;53.00;42.00;18.50
27143;PMS1003;14672;50.250;8.312;2024-03-07T10:27:50;36.25;33.75;16.25
27143;PMS1003;14672;50.250;8.312;2024-03-07T10:30:16;39.75;39.00;18.25
27143;PMS1003;14672;50.250;8.312;2024-03-07T10:32:46;37.25;34.75;18.75
27143;PMS1003;14672;50.250;8.312;2024-03-07T10:35:13;42.75;41.25;21.50
27143;PMS1003;14672;50.250;8.312;2024-03-07T10:37:44;43.50;40.50;19.25
27143;PMS1003;14672;50.250;8.312;2024-03-07T10:40:13;37.50;35.25;17.50
27143;PMS1003;14672;50.250;8.312;2024-03-07T10:42:46;43.00;36.00;18.25
27143;PMS1003;14672;50.250;8.312;2024-03-07T10:45:17;38.75;36.25;18.25
27143;PMS1003;14672;50.250;8.312;2024-03-07T10:47:53;41.25;39.00;17.25
27143;PMS1003;14672;50.250;8.312;2024-03-07T10:50:41;46.00;39.50;19.75
27143;PMS1003;14672;50.250;8.312;2024-03-07T10:59:41;35.50;32.00;17.50
27143;PMS1003;14672;50.250;8.312;2024-03-07T11:04:55;37.25;33.25;17.00
27143;PMS1003;14672;50.250;8.312;2024-03-07T11:07:22;34.00;31.25;17.00
27143;PMS1003;14672;50.250;8.312;2024-03-07T11:09:49;43.25;37.00;16.00
27143;PMS1003;14672;50.250;8.312;2024-03-07T11:12:17;41.25;34.50;18.00
27143;PMS1003;14672;50.250;8.312;2024-03-07T11:14:47;37.50;33.50;15.75
27143;PMS1003;14672;50.250;8.312;2024-03-07T11:17:15;38.00;33.75;15.50
27143;PMS1003;14672;50.250;8.312;2024-03-07T11:19:44;32.25;30.75;15.50
27143;PMS1003;14672;50.250;8.312;2024-03-07T11:22:10;32.50;31.00;17.00
27143;PMS1003;14672;50.250;8.312;2024-03-07T11:24:42;39.75;34.75;17.00
27143;PMS1003;14672;50.250;8.312;2024-03-07T11:27:10;36.25;34.25;15.25
27143;PMS1003;14672;50.250;8.312;2024-03-07T11:29:49;34.25;33.00;17.50
27143;PMS1003;14672;50.250;8.312;2024-03-07T11:32:18;39.25;36.50;18.75
27143;PMS1003;14672;50.250;8.312;2024-03-07T11:34:48;36.75;32.00;18.00
27143;PMS1003;14672;50.250;8.312;2024-03-07T11:37:58;35.25;31.50;17.75
27143;PMS1003;14672;50.250;8.312;2024-03-07T11:42:50;35.00;35.00;20.25
27143;PMS1003;14672;50.250;8.312;2024-03-07T11:45:18;41.25;37.75;20.00
27143;PMS1003;14672;50.250;8.312;2024-03-07T11:47:55;49.50;41.50;22.00
27143;PMS1003;14672;50.250;8.312;2024-03-07T11:50:28;43.50;40.00;18.75
27143;PMS1003;14672;50.250;8.312;2024-03-07T11:53:01;46.00;41.00;21.75
27143;PMS1003;14672;50.250;8.312;2024-03-07T11:55:31;41.75;35.25;18.75
27143;PMS1003;14672;50.250;8.312;2024-03-07T11:58:19;44.75;42.25;23.75
27143;PMS1003;14672;50.250;8.312;2024-03-07T12:00:46;52.75;45.00;21.50
27143;PMS1003;14672;50.250;8.312;2024-03-07T12:03:16;56.00;47.00;23.75
27143;PMS1003;14672;50.250;8.312;2024-03-07T12:05:50;47.75;42.00;22.50
27143;PMS1003;14672;50.250;8.312;2024-03-07T12:08:17;48.00;45.75;23.00
27143;PMS1003;14672;50.250;8.312;2024-03-07T12:10:45;50.75;42.75;22.25
27143;PMS1003;14672;50.250;8.312;2024-03-07T12:13:11;49.67;40.67;20.00
27143;PMS1003;14672;50.250;8.312;2024-03-07T12:15:41;42.25;39.25;20.25
27143;PMS1003;14672;50.250;8.312;2024-03-07T12:18:08;42.50;40.75;21.25
27143;PMS1003;14672;50.250;8.312;2024-03-07T12:20:39;50.25;43.75;20.00
27143;PMS1003;14672;50.250;8.312;2024-03-07T12:23:07;42.25;40.75;22.50
27143;PMS1003;14672;50.250;8.312;2024-03-07T12:25:37;45.50;41.25;22.00
27143;PMS1003;14672;50.250;8.312;2024-03-07T12:28:11;40.25;38.50;18.00
27143;PMS1003;14672;50.250;8.312;2024-03-07T12:30:55;39.50;35.50;20.00
27143;PMS1003;14672;50.250;8.312;2024-03-07T12:33:21;36.00;32.00;18.50
27143;PMS1003;14672;50.250;8.312;2024-03-07T12:35:51;39.25;34.50;18.50
27143;PMS1003;14672;50.250;8.312;2024-03-07T12:38:25;46.00;37.50;20.00
27143;PMS1003;14672;50.250;8.312;2024-03-07T12:41:02;40.25;35.50;15.50
27143;PMS1003;14672;50.250;8.312;2024-03-07T12:43:38;37.25;35.00;18.00
27143;PMS1003;14672;50.250;8.312;2024-03-07T12:46:07;37.50;34.25;17.25
27143;PMS1003;14672;50.250;8.312;2024-03-07T12:48:40;41.50;37.50;17.00
27143;PMS1003;14672;50.250;8.312;2024-03-07T12:51:06;32.67;31.67;15.00
27143;PMS1003;14672;50.250;8.312;2024-03-07T12:53:32;37.00;30.00;17.00
27143;PMS1003;14672;50.250;8.312;2024-03-07T12:56:00;31.25;29.25;15.25
27143;PMS1003;14672;50.250;8.312;2024-03-07T12:58:26;31.75;28.25;15.00
27143;PMS1003;14672;50.250;8.312;2024-03-07T13:00:54;33.50;32.50;16.00
27143;PMS1003;14672;50.250;8.312;2024-03-07T13:03:20;37.25;31.75;15.00
27143;PMS1003;14672;50.250;8.312;2024-03-07T13:05:47;32.00;31.00;15.25
27143;PMS1003;14672;50.250;8.312;2024-03-07T13:08:13;31.33;29.33;15.00
27143;PMS1003;14672;50.250;8.312;2024-03-07T13:10:41;27.00;26.33;11.67
27143;PMS1003;14672;50.250;8.312;2024-03-07T13:13:08;43.75;34.00;15.25
27143;PMS1003;14672;50.250;8.312;2024-03-07T13:15:37;36.00;30.75;16.00
27143;PMS1003;14672;50.250;8.312;2024-03-07T13:18:04;26.50;26.25;12.00
27143;PMS1003;14672;50.250;8.312;2024-03-07T13:20:32;30.50;29.25;14.75
27143;PMS1003;14672;50.250;8.312;2024-03-07T13:22:58;32.33;30.00;15.33
27143;PMS1003;14672;50.250;8.312;2024-03-07T13:25:26;39.25;28.75;14.50
27143;PMS1003;14672;50.250;8.312;2024-03-07T13:30:28;37.75;28.75;15.75
27143;PMS1003;14672;50.250;8.312;2024-03-07T13:32:58;28.33;27.00;13.00
27143;PMS1003;14672;50.250;8.312;2024-03-07T13:35:24;28.75;27.75;13.00
27143;PMS1003;14672;50.250;8.312;2024-03-07T13:37:52;28.50;27.25;15.00
27143;PMS1003;14672;50.250;8.312;2024-03-07T13:40:22;31.75;28.25;14.00
27143;PMS1003;14672;50.250;8.312;2024-03-07T13:42:53;30.00;25.75;11.75
27143;PMS1003;14672;50.250;8.312;2024-03-07T13:45:27;26.00;25.50;12.50
27143;PMS1003;14672;50.250;8.312;2024-03-07T13:47:56;29.50;26.25;12.25
27143;PMS1003;14672;50.250;8.312;2024-03-07T13:50:25;36.25;30.00;14.75
27143;PMS1003;14672;50.250;8.312;2024-03-07T13:52:56;31.50;27.50;13.50
27143;PMS1003;14672;50.250;8.312;2024-03-07T13:56:08;34.50;29.00;14.25
27143;PMS1003;14672;50.250;8.312;2024-03-07T14:01:41;40.00;35.00;18.50
27143;PMS1003;14672;50.250;8.312;2024-03-07T14:07:50;43.00;36.50;17.25
27143;PMS1003;14672;50.250;8.312;2024-03-07T14:17:14;42.25;34.25;18.75
27143;PMS1003;14672;50.250;8.312;2024-03-07T14:29:26;40.50;35.50;20.25
27143;PMS1003;14672;50.250;8.312;2024-03-07T14:32:13;40.50;38.25;20.75
27143;PMS1003;14672;50.250;8.312;2024-03-07T14:37:55;42.00;39.50;20.50